sensor_id;sensor_type;location;lat;lon;timestamp;P1;durP1;ratioP1;P2;durP2;ratioP2
41927;SDS011;27616;51.420;6.788;2023-11-19T00:02:07;7.63;;;4.03;;
41927;SDS011;27616;51.420;6.788;2023-11-19T00:04:36;10.17;;;3.80;;
41927;SDS011;27616;51.420;6.788;2023-11-19T00:07:02;7.38;;;3.35;;
41927;SDS011;27616;51.420;6.788;2023-11-19T00:09:28;5.90;;;2.83;;
41927;SDS011;27616;51.420;6.788;2023-11-19T00:11:54;7.10;;;3.13;;
41927;SDS011;27616;51.420;6.788;2023-11-19T00:14:20;6.43;;;3.00;;
41927;SDS011;27616;51.420;6.788;2023-11-19T00:16:46;6.07;;;2.87;;
41927;SDS011;27616;51.420;6.788;2023-11-19T00:19:11;5.60;;;3.27;;
41927;SDS011;27616;51.420;6.788;2023-11-19T00:21:37;5.77;;;3.13;;
41927;SDS011;27616;51.420;6.788;2023-11-19T00:24:03;7.30;;;3.23;;
41927;SDS011;27616;51.420;6.788;2023-11-19T00:26:29;6.60;;;3.20;;
41927;SDS011;27616;51.420;6.788;2023-11-19T00:28:56;4.93;;;2.83;;
41927;SDS011;27616;51.420;6.788;2023-11-19T00:31:22;8.77;;;3.27;;
41927;SDS011;27616;51.420;6.788;2023-11-19T00:33:48;6.87;;;3.23;;
41927;SDS011;27616;51.420;6.788;2023-11-19T00:36:13;6.53;;;2.70;;
41927;SDS011;27616;51.420;6.788;2023-11-19T00:38:39;7.23;;;3.40;;
41927;SDS011;27616;51.420;6.788;2023-11-19T00:41:05;8.13;;;3.83;;
41927;SDS011;27616;51.420;6.788;2023-11-19T00:43:30;7.97;;;3.73;;
41927;SDS011;27616;51.420;6.788;2023-11-19T00:45:56;7.67;;;4.20;;
41927;SDS011;27616;51.420;6.788;2023-11-19T00:48:22;7.40;;;4.10;;
41927;SDS011;27616;51.420;6.788;2023-11-19T00:50:47;7.37;;;4.33;;
41927;SDS011;27616;51.420;6.788;2023-11-19T00:53:13;8.65;;;5.13;;
41927;SDS011;27616;51.420;6.788;2023-11-19T00:55:38;8.87;;;4.50;;
41927;SDS011;27616;51.420;6.788;2023-11-19T00:58:04;9.38;;;5.00;;
41927;SDS011;27616;51.420;6.788;2023-11-19T01:00:30;9.77;;;5.28;;
41927;SDS011;27616;51.420;6.788;2023-11-19T01:02:57;11.10;;;5.88;;
41927;SDS011;27616;51.420;6.788;2023-11-19T01:05:25;12.40;;;6.45;;
41927;SDS011;27616;51.420;6.788;2023-11-19T01:07:51;10.88;;;5.68;;
41927;SDS011;27616;51.420;6.788;2023-11-19T01:10:18;10.77;;;5.45;;
41927;SDS011;27616;51.420;6.788;2023-11-19T01:12:44;7.97;;;4.60;;
41927;SDS011;27616;51.420;6.788;2023-11-19T01:15:10;10.48;;;5.18;;
41927;SDS011;27616;51.420;6.788;2023-11-19T01:17:38;9.52;;;5.00;;
41927;SDS011;27616;51.420;6.788;2023-11-19T01:20:04;11.85;;;5.43;;
41927;SDS011;27616;51.420;6.788;2023-11-19T01:22:32;9.85;;;5.07;;
41927;SDS011;27616;51.420;6.788;2023-11-19T01:24:58;10.32;;;5.40;;
41927;SDS011;27616;51.420;6.788;2023-11-19T01:27:24;16.98;;;7.78;;
41927;SDS011;27616;51.420;6.788;2023-11-19T01:29:50;12.35;;;6.05;;
41927;SDS011;27616;51.420;6.788;2023-11-19T01:32:15;8.40;;;4.75;;
41927;SDS011;27616;51.420;6.788;2023-11-19T01:34:41;10.13;;;4.85;;
41927;SDS011;27616;51.420;6.788;2023-11-19T01:37:07;7.97;;;4.78;;
41927;SDS011;27616;51.420;6.788;2023-11-19T01:39:35;7.78;;;4.63;;
41927;SDS011;27616;51.420;6.788;2023-11-19T01:42:01;8.88;;;4.10;;
41927;SDS011;27616;51.420;6.788;2023-11-19T01:44:26;8.10;;;3.60;;
41927;SDS011;27616;51.420;6.788;2023-11-19T01:46:52;6.38;;;3.25;;
41927;SDS011;27616;51.420;6.788;2023-11-19T01:49:18;5.28;;;2.72;;
41927;SDS011;27616;51.420;6.788;2023-11-19T01:51:44;8.15;;;2.60;;
41927;SDS011;27616;51.420;6.788;2023-11-19T01:54:11;3.40;;;2.05;;
41927;SDS011;27616;51.420;6.788;2023-11-19T01:56:38;5.53;;;2.78;;
41927;SDS011;27616;51.420;6.788;2023-11-19T01:59:05;3.13;;;1.80;;
41927;SDS011;27616;51.420;6.788;2023-11-19T02:01:32;3.35;;;1.98;;
41927;SDS011;27616;51.420;6.788;2023-11-19T02:04:03;5.25;;;2.33;;
41927;SDS011;27616;51.420;6.788;2023-11-19T02:06:29;6.28;;;2.50;;
41927;SDS011;27616;51.420;6.788;2023-11-19T02:08:56;3.80;;;2.05;;
41927;SDS011;27616;51.420;6.788;2023-11-19T02:11:22;4.70;;;2.20;;
41927;SDS011;27616;51.420;6.788;2023-11-19T02:13:49;5.30;;;2.83;;
41927;SDS011;27616;51.420;6.788;2023-11-19T02:16:14;7.00;;;3.30;;
41927;SDS011;27616;51.420;6.788;2023-11-19T02:18:40;10.25;;;2.97;;
41927;SDS011;27616;51.420;6.788;2023-11-19T02:21:06;7.75;;;2.55;;
41927;SDS011;27616;51.420;6.788;2023-11-19T02:23:31;5.05;;;2.67;;
41927;SDS011;27616;51.420;6.788;2023-11-19T02:28:45;8.68;;;2.97;;
41927;SDS011;27616;51.420;6.788;2023-11-19T02:31:11;7.60;;;3.58;;
41927;SDS011;27616;51.420;6.788;2023-11-19T02:33:39;10.98;;;3.10;;
41927;SDS011;27616;51.420;6.788;2023-11-19T02:36:05;5.88;;;2.33;;
41927;SDS011;27616;51.420;6.788;2023-11-19T02:38:33;5.30;;;2.60;;
41927;SDS011;27616;51.420;6.788;2023-11-19T02:41:05;3.17;;;1.60;;
41927;SDS011;27616;51.420;6.788;2023-11-19T02:43:32;3.75;;;1.50;;
41927;SDS011;27616;51.420;6.788;2023-11-19T02:46:01;9.60;;;1.42;;
41927;SDS011;27616;51.420;6.788;2023-11-19T02:48:29;4.07;;;1.50;;
41927;SDS011;27616;51.420;6.788;2023-11-19T02:50:55;5.10;;;1.50;;
41927;SDS011;27616;51.420;6.788;2023-11-19T02:53:23;6.97;;;1.65;;
41927;SDS011;27616;51.420;6.788;2023-11-19T02:55:52;3.70;;;1.30;;
41927;SDS011;27616;51.420;6.788;2023-11-19T02:58:18;6.05;;;1.50;;
41927;SDS011;27616;51.420;6.788;2023-11-19T03:00:48;3.70;;;1.15;;
41927;SDS011;27616;51.420;6.788;2023-11-19T03:03:22;4.35;;;1.45;;
41927;SDS011;27616;51.420;6.788;2023-11-19T03:05:53;6.93;;;1.33;;
41927;SDS011;27616;51.420;6.788;2023-11-19T03:08:20;4.10;;;1.40;;
41927;SDS011;27616;51.420;6.788;2023-11-19T03:10:46;8.43;;;1.60;;
41927;SDS011;27616;51.420;6.788;2023-11-19T03:13:12;8.45;;;1.48;;
41927;SDS011;27616;51.420;6.788;2023-11-19T03:15:42;9.13;;;2.25;;
41927;SDS011;27616;51.420;6.788;2023-11-19T03:18:08;6.53;;;1.60;;
41927;SDS011;27616;51.420;6.788;2023-11-19T03:20:34;3.80;;;1.95;;
41927;SDS011;27616;51.420;6.788;2023-11-19T03:23:00;10.38;;;2.17;;
41927;SDS011;27616;51.420;6.788;2023-11-19T03:25:27;8.68;;;1.88;;
41927;SDS011;27616;51.420;6.788;2023-11-19T03:27:58;5.88;;;1.75;;
41927;SDS011;27616;51.420;6.788;2023-11-19T03:30:24;6.10;;;1.65;;
41927;SDS011;27616;51.420;6.788;2023-11-19T03:32:50;10.25;;;2.15;;
41927;SDS011;27616;51.420;6.788;2023-11-19T03:35:15;12.43;;;2.28;;
41927;SDS011;27616;51.420;6.788;2023-11-19T03:37:41;10.70;;;2.55;;
41927;SDS011;27616;51.420;6.788;2023-11-19T03:40:07;8.57;;;1.45;;
41927;SDS011;27616;51.420;6.788;2023-11-19T03:42:33;13.07;;;2.20;;
41927;SDS011;27616;51.420;6.788;2023-11-19T03:44:59;10.23;;;2.20;;
41927;SDS011;27616;51.420;6.788;2023-11-19T03:47:25;8.63;;;1.45;;
41927;SDS011;27616;51.420;6.788;2023-11-19T03:49:51;8.63;;;2.67;;
41927;SDS011;27616;51.420;6.788;2023-11-19T03:52:17;9.18;;;2.25;;
41927;SDS011;27616;51.420;6.788;2023-11-19T03:54:43;8.40;;;1.70;;
41927;SDS011;27616;51.420;6.788;2023-11-19T03:57:10;7.47;;;1.80;;
41927;SDS011;27616;51.420;6.788;2023-11-19T03:59:37;6.78;;;1.90;;
41927;SDS011;27616;51.420;6.788;2023-11-19T04:02:03;7.93;;;2.20;;
41927;SDS011;27616;51.420;6.788;2023-11-19T04:04:28;8.95;;;2.20;;
41927;SDS011;27616;51.420;6.788;2023-11-19T04:06:57;13.30;;;2.20;;
41927;SDS011;27616;51.420;6.788;2023-11-19T04:09:23;10.10;;;2.00;;
41927;SDS011;27616;51.420;6.788;2023-11-19T04:11:48;8.63;;;1.77;;
41927;SDS011;27616;51.420;6.788;2023-11-19T04:14:15;7.63;;;2.03;;
41927;SDS011;27616;51.420;6.788;2023-11-19T04:16:43;7.55;;;1.48;;
41927;SDS011;27616;51.420;6.788;2023-11-19T04:19:09;7.35;;;2.17;;
41927;SDS011;27616;51.420;6.788;2023-11-19T04:21:36;11.07;;;1.88;;
41927;SDS011;27616;51.420;6.788;2023-11-19T04:24:01;10.70;;;2.25;;
41927;SDS011;27616;51.420;6.788;2023-11-19T04:26:27;9.32;;;2.15;;
41927;SDS011;27616;51.420;6.788;2023-11-19T04:28:55;12.25;;;2.17;;
41927;SDS011;27616;51.420;6.788;2023-11-19T04:31:21;12.10;;;1.90;;
41927;SDS011;27616;51.420;6.788;2023-11-19T04:33:47;10.85;;;1.90;;
41927;SDS011;27616;51.420;6.788;2023-11-19T04:36:12;10.52;;;2.20;;
41927;SDS011;27616;51.420;6.788;2023-11-19T04:38:39;9.95;;;2.28;;
41927;SDS011;27616;51.420;6.788;2023-11-19T04:41:05;12.60;;;1.73;;
41927;SDS011;27616;51.420;6.788;2023-11-19T04:43:34;13.88;;;2.13;;
41927;SDS011;27616;51.420;6.788;2023-11-19T04:46:00;11.65;;;2.00;;
41927;SDS011;27616;51.420;6.788;2023-11-19T04:48:29;13.75;;;2.22;;
41927;SDS011;27616;51.420;6.788;2023-11-19T04:50:54;9.93;;;1.90;;
41927;SDS011;27616;51.420;6.788;2023-11-19T04:53:20;12.50;;;2.15;;
41927;SDS011;27616;51.420;6.788;2023-11-19T04:55:45;10.95;;;1.80;;
41927;SDS011;27616;51.420;6.788;2023-11-19T04:58:11;11.32;;;1.88;;
41927;SDS011;27616;51.420;6.788;2023-11-19T05:00:37;9.85;;;1.67;;
41927;SDS011;27616;51.420;6.788;2023-11-19T05:03:02;10.82;;;1.90;;
41927;SDS011;27616;51.420;6.788;2023-11-19T05:05:28;14.75;;;2.17;;
41927;SDS011;27616;51.420;6.788;2023-11-19T05:07:54;10.27;;;1.90;;
41927;SDS011;27616;51.420;6.788;2023-11-19T05:10:20;17.50;;;2.70;;
41927;SDS011;27616;51.420;6.788;2023-11-19T05:12:46;11.95;;;2.08;;
41927;SDS011;27616;51.420;6.788;2023-11-19T05:15:11;15.48;;;2.00;;
41927;SDS011;27616;51.420;6.788;2023-11-19T05:17:37;14.98;;;2.17;;
41927;SDS011;27616;51.420;6.788;2023-11-19T05:20:04;10.73;;;2.38;;
41927;SDS011;27616;51.420;6.788;2023-11-19T05:22:30;17.58;;;2.53;;
41927;SDS011;27616;51.420;6.788;2023-11-19T05:24:55;11.32;;;2.65;;
41927;SDS011;27616;51.420;6.788;2023-11-19T05:27:21;13.50;;;2.40;;
41927;SDS011;27616;51.420;6.788;2023-11-19T05:29:48;9.23;;;1.55;;
41927;SDS011;27616;51.420;6.788;2023-11-19T05:32:14;11.88;;;2.00;;
41927;SDS011;27616;51.420;6.788;2023-11-19T05:34:40;10.75;;;1.60;;
41927;SDS011;27616;51.420;6.788;2023-11-19T05:37:05;7.68;;;1.52;;
41927;SDS011;27616;51.420;6.788;2023-11-19T05:39:31;13.43;;;2.35;;
41927;SDS011;27616;51.420;6.788;2023-11-19T05:41:57;12.77;;;2.15;;
41927;SDS011;27616;51.420;6.788;2023-11-19T05:44:22;17.00;;;2.10;;
41927;SDS011;27616;51.420;6.788;2023-11-19T05:46:48;13.00;;;1.90;;
41927;SDS011;27616;51.420;6.788;2023-11-19T05:49:13;14.50;;;1.90;;
41927;SDS011;27616;51.420;6.788;2023-11-19T05:51:39;10.68;;;1.80;;
41927;SDS011;27616;51.420;6.788;2023-11-19T05:54:06;16.05;;;3.03;;
41927;SDS011;27616;51.420;6.788;2023-11-19T05:56:33;9.43;;;1.70;;
41927;SDS011;27616;51.420;6.788;2023-11-19T05:58:59;9.05;;;1.90;;
41927;SDS011;27616;51.420;6.788;2023-11-19T06:01:26;13.57;;;2.47;;
41927;SDS011;27616;51.420;6.788;2023-11-19T06:03:52;10.77;;;1.83;;
41927;SDS011;27616;51.420;6.788;2023-11-19T06:06:17;10.93;;;2.55;;
41927;SDS011;27616;51.420;6.788;2023-11-19T06:08:43;13.82;;;1.98;;
41927;SDS011;27616;51.420;6.788;2023-11-19T06:11:10;17.27;;;2.65;;
41927;SDS011;27616;51.420;6.788;2023-11-19T06:13:40;11.77;;;1.83;;
41927;SDS011;27616;51.420;6.788;2023-11-19T06:16:05;11.50;;;1.73;;
41927;SDS011;27616;51.420;6.788;2023-11-19T06:18:31;7.53;;;1.23;;
41927;SDS011;27616;51.420;6.788;2023-11-19T06:20:57;15.60;;;2.35;;
41927;SDS011;27616;51.420;6.788;2023-11-19T06:23:23;11.00;;;2.22;;
41927;SDS011;27616;51.420;6.788;2023-11-19T06:25:48;12.40;;;2.00;;
41927;SDS011;27616;51.420;6.788;2023-11-19T06:28:14;13.75;;;2.15;;
41927;SDS011;27616;51.420;6.788;2023-11-19T06:30:40;13.95;;;2.15;;
41927;SDS011;27616;51.420;6.788;2023-11-19T06:33:06;13.63;;;2.03;;
41927;SDS011;27616;51.420;6.788;2023-11-19T06:35:32;17.73;;;3.03;;
41927;SDS011;27616;51.420;6.788;2023-11-19T06:38:02;12.30;;;2.25;;
41927;SDS011;27616;51.420;6.788;2023-11-19T06:40:29;12.32;;;2.80;;
41927;SDS011;27616;51.420;6.788;2023-11-19T06:42:55;9.20;;;1.73;;
41927;SDS011;27616;51.420;6.788;2023-11-19T06:45:21;14.35;;;4.00;;
41927;SDS011;27616;51.420;6.788;2023-11-19T06:47:47;13.68;;;2.10;;
41927;SDS011;27616;51.420;6.788;2023-11-19T06:50:13;10.02;;;1.80;;
41927;SDS011;27616;51.420;6.788;2023-11-19T06:52:40;12.20;;;1.67;;
41927;SDS011;27616;51.420;6.788;2023-11-19T06:55:05;14.57;;;1.73;;
41927;SDS011;27616;51.420;6.788;2023-11-19T06:57:32;11.05;;;2.00;;
41927;SDS011;27616;51.420;6.788;2023-11-19T06:59:58;10.20;;;2.00;;
41927;SDS011;27616;51.420;6.788;2023-11-19T07:02:23;13.48;;;2.20;;
41927;SDS011;27616;51.420;6.788;2023-11-19T07:04:50;14.70;;;1.63;;
41927;SDS011;27616;51.420;6.788;2023-11-19T07:07:16;11.20;;;2.78;;
41927;SDS011;27616;51.420;6.788;2023-11-19T07:09:41;18.50;;;2.40;;
41927;SDS011;27616;51.420;6.788;2023-11-19T07:12:07;13.55;;;2.97;;
41927;SDS011;27616;51.420;6.788;2023-11-19T07:14:33;19.27;;;2.50;;
41927;SDS011;27616;51.420;6.788;2023-11-19T07:16:59;14.43;;;2.22;;
41927;SDS011;27616;51.420;6.788;2023-11-19T07:19:25;14.13;;;2.33;;
41927;SDS011;27616;51.420;6.788;2023-11-19T07:21:51;17.15;;;3.38;;
41927;SDS011;27616;51.420;6.788;2023-11-19T07:24:19;13.63;;;2.55;;
41927;SDS011;27616;51.420;6.788;2023-11-19T07:26:47;15.48;;;3.17;;
41927;SDS011;27616;51.420;6.788;2023-11-19T07:29:13;12.25;;;2.25;;
41927;SDS011;27616;51.420;6.788;2023-11-19T07:31:40;21.60;;;2.65;;
41927;SDS011;27616;51.420;6.788;2023-11-19T07:34:05;14.30;;;2.45;;
41927;SDS011;27616;51.420;6.788;2023-11-19T07:36:31;12.73;;;2.63;;
41927;SDS011;27616;51.420;6.788;2023-11-19T07:38:58;15.75;;;2.75;;
41927;SDS011;27616;51.420;6.788;2023-11-19T07:41:24;11.30;;;2.47;;
41927;SDS011;27616;51.420;6.788;2023-11-19T07:43:50;17.20;;;2.15;;
41927;SDS011;27616;51.420;6.788;2023-11-19T07:46:16;12.07;;;3.15;;
41927;SDS011;27616;51.420;6.788;2023-11-19T07:48:44;12.52;;;1.85;;
41927;SDS011;27616;51.420;6.788;2023-11-19T07:51:12;12.80;;;2.47;;
41927;SDS011;27616;51.420;6.788;2023-11-19T07:53:38;11.52;;;2.65;;
41927;SDS011;27616;51.420;6.788;2023-11-19T07:56:04;15.10;;;2.50;;
41927;SDS011;27616;51.420;6.788;2023-11-19T07:58:30;11.85;;;2.58;;
41927;SDS011;27616;51.420;6.788;2023-11-19T08:00:56;11.70;;;2.35;;
41927;SDS011;27616;51.420;6.788;2023-11-19T08:03:21;10.55;;;2.30;;
41927;SDS011;27616;51.420;6.788;2023-11-19T08:05:47;14.02;;;2.47;;
41927;SDS011;27616;51.420;6.788;2023-11-19T08:08:13;13.95;;;2.47;;
41927;SDS011;27616;51.420;6.788;2023-11-19T08:10:40;11.27;;;2.33;;
41927;SDS011;27616;51.420;6.788;2023-11-19T08:13:06;13.20;;;2.42;;
41927;SDS011;27616;51.420;6.788;2023-11-19T08:15:32;12.48;;;2.20;;
41927;SDS011;27616;51.420;6.788;2023-11-19T08:17:58;16.48;;;2.40;;
41927;SDS011;27616;51.420;6.788;2023-11-19T08:20:24;12.52;;;2.00;;
41927;SDS011;27616;51.420;6.788;2023-11-19T08:22:49;15.05;;;2.50;;
41927;SDS011;27616;51.420;6.788;2023-11-19T08:25:15;15.05;;;2.53;;
41927;SDS011;27616;51.420;6.788;2023-11-19T08:27:41;16.17;;;2.95;;
41927;SDS011;27616;51.420;6.788;2023-11-19T08:30:08;21.02;;;2.83;;
41927;SDS011;27616;51.420;6.788;2023-11-19T08:32:34;10.57;;;2.33;;
41927;SDS011;27616;51.420;6.788;2023-11-19T08:35:00;14.60;;;1.98;;
41927;SDS011;27616;51.420;6.788;2023-11-19T08:37:26;12.48;;;2.80;;
41927;SDS011;27616;51.420;6.788;2023-11-19T08:39:52;12.23;;;2.88;;
41927;SDS011;27616;51.420;6.788;2023-11-19T08:42:18;15.75;;;2.45;;
41927;SDS011;27616;51.420;6.788;2023-11-19T08:44:48;15.20;;;1.70;;
41927;SDS011;27616;51.420;6.788;2023-11-19T08:47:15;17.27;;;2.55;;
41927;SDS011;27616;51.420;6.788;2023-11-19T08:49:43;11.07;;;1.90;;
41927;SDS011;27616;51.420;6.788;2023-11-19T08:52:09;13.63;;;2.28;;
41927;SDS011;27616;51.420;6.788;2023-11-19T08:54:35;15.95;;;2.55;;
41927;SDS011;27616;51.420;6.788;2023-11-19T08:57:02;12.65;;;2.33;;
41927;SDS011;27616;51.420;6.788;2023-11-19T08:59:28;12.48;;;2.00;;
41927;SDS011;27616;51.420;6.788;2023-11-19T09:01:55;12.43;;;2.08;;
41927;SDS011;27616;51.420;6.788;2023-11-19T09:04:20;11.43;;;2.13;;
41927;SDS011;27616;51.420;6.788;2023-11-19T09:06:48;15.52;;;2.55;;
41927;SDS011;27616;51.420;6.788;2023-11-19T09:09:14;14.40;;;2.58;;
41927;SDS011;27616;51.420;6.788;2023-11-19T09:11:39;13.05;;;2.00;;
41927;SDS011;27616;51.420;6.788;2023-11-19T09:14:06;17.73;;;1.80;;
41927;SDS011;27616;51.420;6.788;2023-11-19T09:16:31;13.80;;;1.88;;
41927;SDS011;27616;51.420;6.788;2023-11-19T09:18:57;12.57;;;2.03;;
41927;SDS011;27616;51.420;6.788;2023-11-19T09:21:24;11.32;;;2.05;;
41927;SDS011;27616;51.420;6.788;2023-11-19T09:23:50;15.55;;;2.58;;
41927;SDS011;27616;51.420;6.788;2023-11-19T09:26:16;17.40;;;3.08;;
41927;SDS011;27616;51.420;6.788;2023-11-19T09:28:41;13.35;;;2.55;;
41927;SDS011;27616;51.420;6.788;2023-11-19T09:31:16;12.90;;;2.55;;
41927;SDS011;27616;51.420;6.788;2023-11-19T09:33:43;17.20;;;4.28;;
41927;SDS011;27616;51.420;6.788;2023-11-19T09:36:11;24.00;;;4.68;;
41927;SDS011;27616;51.420;6.788;2023-11-19T09:41:13;14.23;;;2.25;;
41927;SDS011;27616;51.420;6.788;2023-11-19T09:43:39;10.90;;;2.47;;
41927;SDS011;27616;51.420;6.788;2023-11-19T09:46:06;13.98;;;2.42;;
41927;SDS011;27616;51.420;6.788;2023-11-19T09:48:36;14.88;;;2.67;;
41927;SDS011;27616;51.420;6.788;2023-11-19T09:51:04;12.65;;;2.00;;
41927;SDS011;27616;51.420;6.788;2023-11-19T09:53:30;12.68;;;2.35;;
41927;SDS011;27616;51.420;6.788;2023-11-19T09:55:56;11.70;;;1.85;;
41927;SDS011;27616;51.420;6.788;2023-11-19T09:58:24;9.98;;;2.25;;
41927;SDS011;27616;51.420;6.788;2023-11-19T10:00:51;11.23;;;1.55;;
41927;SDS011;27616;51.420;6.788;2023-11-19T10:03:17;14.60;;;2.28;;
41927;SDS011;27616;51.420;6.788;2023-11-19T10:05:42;12.18;;;1.80;;
41927;SDS011;27616;51.420;6.788;2023-11-19T10:08:08;14.18;;;2.38;;
41927;SDS011;27616;51.420;6.788;2023-11-19T10:10:36;15.00;;;2.50;;
41927;SDS011;27616;51.420;6.788;2023-11-19T10:13:02;16.85;;;2.38;;
41927;SDS011;27616;51.420;6.788;2023-11-19T10:15:28;15.80;;;2.85;;
41927;SDS011;27616;51.420;6.788;2023-11-19T10:18:01;9.65;;;2.22;;
41927;SDS011;27616;51.420;6.788;2023-11-19T10:20:27;21.35;;;2.88;;
41927;SDS011;27616;51.420;6.788;2023-11-19T10:22:54;17.40;;;2.40;;
41927;SDS011;27616;51.420;6.788;2023-11-19T10:25:27;13.85;;;1.98;;
41927;SDS011;27616;51.420;6.788;2023-11-19T10:27:56;17.42;;;2.75;;
41927;SDS011;27616;51.420;6.788;2023-11-19T10:30:23;15.88;;;3.60;;
41927;SDS011;27616;51.420;6.788;2023-11-19T10:33:07;16.88;;;1.80;;
41927;SDS011;27616;51.420;6.788;2023-11-19T10:35:33;17.27;;;3.10;;
41927;SDS011;27616;51.420;6.788;2023-11-19T10:38:19;15.95;;;2.38;;
41927;SDS011;27616;51.420;6.788;2023-11-19T10:40:47;11.13;;;2.00;;
41927;SDS011;27616;51.420;6.788;2023-11-19T10:43:13;18.40;;;2.17;;
41927;SDS011;27616;51.420;6.788;2023-11-19T10:45:39;9.80;;;2.80;;
41927;SDS011;27616;51.420;6.788;2023-11-19T10:48:06;17.08;;;2.60;;
41927;SDS011;27616;51.420;6.788;2023-11-19T10:50:35;14.55;;;2.58;;
41927;SDS011;27616;51.420;6.788;2023-11-19T10:53:02;15.85;;;3.38;;
41927;SDS011;27616;51.420;6.788;2023-11-19T10:55:30;11.23;;;2.20;;
41927;SDS011;27616;51.420;6.788;2023-11-19T10:58:01;14.07;;;2.85;;
41927;SDS011;27616;51.420;6.788;2023-11-19T11:00:29;22.85;;;4.55;;
41927;SDS011;27616;51.420;6.788;2023-11-19T11:03:01;14.20;;;3.35;;
41927;SDS011;27616;51.420;6.788;2023-11-19T11:05:32;10.60;;;2.25;;
41927;SDS011;27616;51.420;6.788;2023-11-19T11:08:00;12.60;;;3.00;;
41927;SDS011;27616;51.420;6.788;2023-11-19T11:10:27;14.15;;;2.47;;
41927;SDS011;27616;51.420;6.788;2023-11-19T11:12:58;18.40;;;2.70;;
41927;SDS011;27616;51.420;6.788;2023-11-19T11:15:26;12.88;;;2.20;;
41927;SDS011;27616;51.420;6.788;2023-11-19T11:17:55;16.60;;;2.15;;
41927;SDS011;27616;51.420;6.788;2023-11-19T11:20:31;14.95;;;2.28;;
41927;SDS011;27616;51.420;6.788;2023-11-19T11:34:55;13.95;;;2.35;;
41927;SDS011;27616;51.420;6.788;2023-11-19T11:37:39;13.15;;;2.35;;
41927;SDS011;27616;51.420;6.788;2023-11-19T11:40:15;9.52;;;2.00;;
41927;SDS011;27616;51.420;6.788;2023-11-19T11:42:41;9.80;;;1.83;;
41927;SDS011;27616;51.420;6.788;2023-11-19T11:45:07;11.13;;;2.22;;
41927;SDS011;27616;51.420;6.788;2023-11-19T11:48:20;11.73;;;1.40;;
41927;SDS011;27616;51.420;6.788;2023-11-19T11:50:21;7.85;;;1.60;;
41927;SDS011;27616;51.420;6.788;2023-11-19T11:55:33;12.55;;;2.00;;
41927;SDS011;27616;51.420;6.788;2023-11-19T11:58:01;14.15;;;1.88;;
41927;SDS011;27616;51.420;6.788;2023-11-19T12:00:37;12.38;;;2.10;;
41927;SDS011;27616;51.420;6.788;2023-11-19T12:03:05;10.27;;;2.25;;
41927;SDS011;27616;51.420;6.788;2023-11-19T12:05:32;10.13;;;1.85;;
41927;SDS011;27616;51.420;6.788;2023-11-19T12:08:02;12.68;;;2.28;;
41927;SDS011;27616;51.420;6.788;2023-11-19T12:10:30;12.05;;;2.35;;
41927;SDS011;27616;51.420;6.788;2023-11-19T12:13:00;13.77;;;2.03;;
41927;SDS011;27616;51.420;6.788;2023-11-19T12:15:26;10.70;;;1.65;;
41927;SDS011;27616;51.420;6.788;2023-11-19T12:17:56;13.23;;;2.10;;
41927;SDS011;27616;51.420;6.788;2023-11-19T12:20:22;9.85;;;2.10;;
41927;SDS011;27616;51.420;6.788;2023-11-19T12:22:49;10.98;;;1.80;;
41927;SDS011;27616;51.420;6.788;2023-11-19T12:25:16;8.20;;;2.08;;
41927;SDS011;27616;51.420;6.788;2023-11-19T12:27:46;14.30;;;2.28;;
41927;SDS011;27616;51.420;6.788;2023-11-19T12:30:22;12.07;;;1.95;;
41927;SDS011;27616;51.420;6.788;2023-11-19T12:32:54;8.70;;;1.60;;
41927;SDS011;27616;51.420;6.788;2023-11-19T12:35:20;9.52;;;1.63;;
41927;SDS011;27616;51.420;6.788;2023-11-19T12:37:46;8.90;;;1.75;;
41927;SDS011;27616;51.420;6.788;2023-11-19T12:40:20;9.98;;;1.67;;
41927;SDS011;27616;51.420;6.788;2023-11-19T12:42:47;10.35;;;1.92;;
41927;SDS011;27616;51.420;6.788;2023-11-19T12:45:13;12.15;;;2.20;;
41927;SDS011;27616;51.420;6.788;2023-11-19T12:47:41;10.02;;;1.45;;
41927;SDS011;27616;51.420;6.788;2023-11-19T12:50:08;9.10;;;1.52;;
41927;SDS011;27616;51.420;6.788;2023-11-19T12:52:37;8.98;;;2.42;;
41927;SDS011;27616;51.420;6.788;2023-11-19T13:00:04;11.00;;;2.10;;
41927;SDS011;27616;51.420;6.788;2023-11-19T13:02:44;6.25;;;1.65;;
41927;SDS011;27616;51.420;6.788;2023-11-19T13:05:20;7.63;;;2.10;;
41927;SDS011;27616;51.420;6.788;2023-11-19T13:08:10;8.77;;;1.70;;
41927;SDS011;27616;51.420;6.788;2023-11-19T13:10:50;7.72;;;1.60;;
41927;SDS011;27616;51.420;6.788;2023-11-19T13:13:17;8.80;;;1.58;;
41927;SDS011;27616;51.420;6.788;2023-11-19T13:15:43;13.05;;;2.30;;
41927;SDS011;27616;51.420;6.788;2023-11-19T13:18:11;12.00;;;2.70;;
41927;SDS011;27616;51.420;6.788;2023-11-19T13:20:37;10.52;;;3.10;;
41927;SDS011;27616;51.420;6.788;2023-11-19T13:23:04;11.02;;;2.65;;
41927;SDS011;27616;51.420;6.788;2023-11-19T13:25:31;8.02;;;1.63;;
41927;SDS011;27616;51.420;6.788;2023-11-19T13:27:57;7.78;;;1.45;;
41927;SDS011;27616;51.420;6.788;2023-11-19T13:30:24;9.75;;;1.75;;
41927;SDS011;27616;51.420;6.788;2023-11-19T13:32:51;9.68;;;1.70;;
41927;SDS011;27616;51.420;6.788;2023-11-19T13:35:17;19.02;;;2.05;;
41927;SDS011;27616;51.420;6.788;2023-11-19T13:37:43;8.88;;;1.33;;
41927;SDS011;27616;51.420;6.788;2023-11-19T13:40:10;10.65;;;2.28;;
41927;SDS011;27616;51.420;6.788;2023-11-19T13:42:40;12.02;;;1.85;;
41927;SDS011;27616;51.420;6.788;2023-11-19T13:45:13;11.95;;;1.73;;
41927;SDS011;27616;51.420;6.788;2023-11-19T13:47:40;7.75;;;1.67;;
41927;SDS011;27616;51.420;6.788;2023-11-19T13:50:11;12.98;;;1.55;;
41927;SDS011;27616;51.420;6.788;2023-11-19T13:52:42;9.75;;;1.75;;
41927;SDS011;27616;51.420;6.788;2023-11-19T13:55:10;10.63;;;2.03;;
41927;SDS011;27616;51.420;6.788;2023-11-19T13:57:36;11.18;;;1.92;;
41927;SDS011;27616;51.420;6.788;2023-11-19T14:00:03;6.72;;;1.38;;
41927;SDS011;27616;51.420;6.788;2023-11-19T14:02:34;10.20;;;1.83;;
41927;SDS011;27616;51.420;6.788;2023-11-19T14:04:59;9.05;;;2.42;;
41927;SDS011;27616;51.420;6.788;2023-11-19T14:07:25;8.43;;;1.60;;
41927;SDS011;27616;51.420;6.788;2023-11-19T14:09:51;9.25;;;1.60;;
41927;SDS011;27616;51.420;6.788;2023-11-19T14:12:17;11.50;;;2.33;;
41927;SDS011;27616;51.420;6.788;2023-11-19T14:14:42;10.13;;;1.95;;
41927;SDS011;27616;51.420;6.788;2023-11-19T14:17:08;11.02;;;2.15;;
41927;SDS011;27616;51.420;6.788;2023-11-19T14:19:36;11.35;;;1.90;;
41927;SDS011;27616;51.420;6.788;2023-11-19T14:22:02;12.38;;;2.72;;
41927;SDS011;27616;51.420;6.788;2023-11-19T14:24:27;17.52;;;2.88;;
41927;SDS011;27616;51.420;6.788;2023-11-19T14:26:53;14.23;;;2.20;;
41927;SDS011;27616;51.420;6.788;2023-11-19T14:29:19;10.93;;;1.88;;
41927;SDS011;27616;51.420;6.788;2023-11-19T14:31:44;9.23;;;1.77;;
41927;SDS011;27616;51.420;6.788;2023-11-19T14:34:10;11.45;;;1.88;;
41927;SDS011;27616;51.420;6.788;2023-11-19T14:36:35;6.60;;;1.33;;
41927;SDS011;27616;51.420;6.788;2023-11-19T14:39:01;14.93;;;2.38;;
41927;SDS011;27616;51.420;6.788;2023-11-19T14:41:26;10.20;;;1.77;;
41927;SDS011;27616;51.420;6.788;2023-11-19T14:43:52;6.15;;;1.80;;
41927;SDS011;27616;51.420;6.788;2023-11-19T14:46:18;14.63;;;2.85;;
41927;SDS011;27616;51.420;6.788;2023-11-19T14:48:43;8.98;;;1.98;;
41927;SDS011;27616;51.420;6.788;2023-11-19T14:51:09;11.75;;;2.40;;
41927;SDS011;27616;51.420;6.788;2023-11-19T14:53:35;8.77;;;1.25;;
41927;SDS011;27616;51.420;6.788;2023-11-19T14:56:01;11.68;;;1.65;;
41927;SDS011;27616;51.420;6.788;2023-11-19T14:58:27;9.95;;;2.08;;
41927;SDS011;27616;51.420;6.788;2023-11-19T15:00:53;5.82;;;1.52;;
41927;SDS011;27616;51.420;6.788;2023-11-19T15:03:18;12.20;;;1.90;;